ENKR

Kirkenes , Høybuktmoen Airport

Kirkenes, Norway
TAF ENKR 261100Z 2612/2621 34005KT 9999 -DZ FEW001 BKN020 TEMPO 2612/2618 BKN005
Issued Valid From Valid To
Apr-26 @ 11:00 UTC
(2 hours ago)
Apr-26 @ 12:00 UTC
(an hour ago)
Apr-26 @ 21:00 UTC
(in 8 hours)
Apr-26 @ 12:00 to Apr-26 @ 21:00
TAF ENKR 261100Z 2612/2621 34005KT 9999 -DZ FEW001 BKN020
Wind Visibility Clouds Conditions
340° at 5 knots 10,000+ meters
  • Few at 100' AGL
  • Broken at 2,000' AGL
  • Light Drizzle
Temporary Apr-26 @ 12:00 to Apr-26 @ 18:00
TEMPO 2612/2618 BKN005
Clouds
  • Broken at 500' AGL
TAF ENKR 261100Z 2612/2621 34005KT 9999 -DZ FEW001 BKN020 TEMPO 2612/2618 BKN005
Issued Apr-26 @ 11:00 UTC
(2 hours ago)
Valid From Apr-26 @ 12:00 UTC
(an hour ago)
Valid To Apr-26 @ 21:00 UTC
(in 8 hours)
Apr-26 @ 12:00 - Apr-26 @ 21:00
Wind Visibility
340° at 5 knots 10,000+ meters
Clouds
  • Few at 100' AGL
  • Broken at 2,000' AGL
Conditions
  • Light Drizzle
Temporary Apr-26 @ 12:00 - Apr-26 @ 18:00
Clouds
  • Broken at 500' AGL